UKOO/ODS METAR and TAF weather

Enter ICAO airport designator
Station Type Date Time Source
UKOO METAR 2020/01/18 15:30 UTC NOAA

UKOO 181530Z 00000MPS CAVOK 02/M01 Q1029 R16/090060 NOSIG


Station Type Date Time Source
UKOO Decoded METAR 2020/01/18 15:30 UTC NOAA

Odesa, Ukraine (UKOO) 46-26N 030-46E 42M
Jan 18, 2020 - 10:30 AM EST / 2020.01.18 1530 UTC
Wind: Calm:0
Visibility: greater than 7 mile(s):0
Temperature: 35 F (2 C)
Dew Point: 30 F (-1 C)
Relative Humidity: 80%
Pressure (altimeter): 30.39 in. Hg (1029 hPa)
ob: UKOO 181530Z 00000MPS CAVOK 02/M01 Q1029 R16/090060 NOSIG
cycle: 15

Station Type Date Time Source
UKOO TAF 2020/01/18 06:15 UTC NOAA

TAF UKOO 180508Z 1806/1906 08003MPS 2100 BR BKN007 TX04/1812Z TNM01/1904Z PROB40
TEMPO 1806/1809 0300 FG VV002
TEMPO 1809/1815 12003MPS

Example: see airport list